Time;durP1;ratioP1;P1;durP2;ratioP2;P2;SDS_P1;SDS_P2;PMS_P1;PMS_P2;Temp;Humidity;BMP_temperature;BMP_pressure;BME280_temperature;BME280_humidity;BME280_pressure;Samples;Min_cycle;Max_cycle;Signal;HPM_P1;HPM_P2
2021/06/04 00:01:22;;;;;;;4.13;2.50;;;12.90;92.20;;;;;;4687894;30;20079;-80
2021/06/04 00:03:58;;;;;;;2.22;1.98;;;12.70;91.70;;;;;;4685216;30;20077;-80
2021/06/04 00:06:27;;;;;;;2.92;2.35;;;12.70;91.90;;;;;;4668983;30;20057;-80
2021/06/04 00:09:01;;;;;;;2.97;2.17;;;12.70;91.00;;;;;;4711551;30;20057;-81
2021/06/04 00:12:00;;;;;;;1.77;1.67;;;12.80;90.20;;;;;;4684083;30;20057;-80
2021/06/04 00:15:03;;;;;;;9.23;2.40;;;12.80;91.70;;;;;;4714284;30;20063;-80
2021/06/04 00:17:38;;;;;;;2.45;1.80;;;12.70;92.70;;;;;;4684273;30;20143;-80
2021/06/04 00:20:18;;;;;;;2.08;1.88;;;12.50;92.40;;;;;;4701303;30;20061;-81
2021/06/04 00:22:48;;;;;;;;;;;12.60;91.60;;;;;;4686415;30;20053;-81
2021/06/04 00:25:16;;;;;;;2.45;2.15;;;12.70;91.00;;;;;;4671353;30;20289;-81
2021/06/04 00:27:44;;;;;;;2.40;2.20;;;12.70;91.10;;;;;;4733283;30;20052;-81
2021/06/04 00:30:13;;;;;;;5.70;2.70;;;12.90;91.20;;;;;;4733025;30;20054;-81
2021/06/04 00:32:41;;;;;;;2.63;2.42;;;12.80;92.40;;;;;;4752143;30;20056;-80
2021/06/04 00:35:11;;;;;;;2.63;2.03;;;12.60;93.20;;;;;;4722478;30;20063;-80
2021/06/04 00:37:49;;;;;;;2.03;1.90;;;12.40;93.00;;;;;;4721613;30;20044;-80
2021/06/04 00:40:42;;;;;;;6.35;2.35;;;12.40;92.50;;;;;;4721683;30;20508;-80
2021/06/04 00:44:19;;;;;;;3.70;2.20;;;12.40;92.50;;;;;;4739641;30;20060;-80
2021/06/04 00:52:04;;;;;;;3.13;2.25;;;12.50;91.90;;;;;;4752211;30;20040;-83
2021/06/04 00:55:14;;;;;;;2.42;2.03;;;12.50;91.60;;;;;;4750227;30;20048;-83
2021/06/04 00:58:13;;;;;;;2.35;2.15;;;12.60;91.60;;;;;;4736195;30;20502;-83
2021/06/04 01:01:13;;;;;;;7.55;1.77;;;12.60;91.60;;;;;;4734809;30;20060;-84
2021/06/04 01:04:28;;;;;;;2.40;2.20;;;12.60;92.50;;;;;;4750976;30;20044;-82
2021/06/04 01:07:29;;;;;;;2.17;2.08;;;12.30;94.00;;;;;;4738785;30;20056;-84
2021/06/04 01:11:34;;;;;;;2.53;1.88;;;12.00;94.20;;;;;;4729794;30;20387;-83
2021/06/04 01:14:52;;;;;;;4.25;2.63;;;12.00;94.10;;;;;;4723457;30;20059;-85
2021/06/04 01:18:13;;;;;;;2.25;1.90;;;12.10;94.20;;;;;;4725699;30;20058;-84
2021/06/04 01:21:24;;;;;;;2.03;1.92;;;12.10;93.80;;;;;;4723204;30;20063;-84
2021/06/04 01:56:23;;;;;;;;;;;;;;;;;;;;;
2021/06/04 02:59:22;;;;;;;4.15;3.40;;;11.40;97.80;;;;;;4756744;29;20063;-83
2021/06/04 03:55:25;;;;;;;3.97;3.15;;;11.30;99.90;;;;;;4715955;30;20061;-84
2021/06/04 03:57:54;;;;;;;5.30;2.92;;;11.40;99.90;;;;;;4707536;30;20064;-83
2021/06/04 04:00:40;;;;;;;5.47;3.65;;;11.30;99.90;;;;;;4722715;30;20056;-83
2021/06/04 04:03:09;;;;;;;6.32;5.03;;;11.10;99.90;;;;;;4709574;30;20063;-84
2021/06/04 04:05:38;;;;;;;5.05;4.63;;;10.90;99.90;;;;;;4740262;30;20069;-84
2021/06/04 04:08:09;;;;;;;9.75;4.22;;;10.90;99.90;;;;;;4770983;30;20724;-84
2021/06/04 04:10:39;;;;;;;3.92;3.58;;;10.90;99.90;;;;;;4721889;30;20056;-83
2021/06/04 04:13:08;;;;;;;5.15;4.03;;;11.10;99.90;;;;;;4737200;30;20415;-84
2021/06/04 04:15:37;;;;;;;3.67;3.38;;;11.30;99.90;;;;;;4736776;30;20048;-83
2021/06/04 04:18:09;;;;;;;3.33;3.03;;;11.40;99.90;;;;;;4734416;30;20521;-83
2021/06/04 04:21:06;;;;;;;3.72;3.15;;;11.60;99.90;;;;;;4725108;30;20563;-84
2021/06/04 04:24:10;;;;;;;3.83;3.20;;;11.80;99.90;;;;;;4739063;30;20059;-83
2021/06/04 04:26:40;;;;;;;4.60;3.88;;;11.90;99.90;;;;;;4721739;30;20055;-83
2021/06/04 04:29:08;;;;;;;5.55;4.35;;;12.10;99.90;;;;;;4752400;30;20056;-84
2021/06/04 04:31:45;;;;;;;3.30;3.08;;;12.20;99.90;;;;;;4738530;30;20079;-83
2021/06/04 06:00:49;;;;;;;3.85;3.50;;;16.80;97.80;;;;;;4666291;30;20077;-84
2021/06/04 06:04:45;;;;;;;4.65;4.25;;;17.10;96.50;;;;;;4638397;30;20057;-85
2021/06/04 06:28:33;;;;;;;5.20;3.97;;;19.30;91.50;;;;;;4677511;30;20056;-87
2021/06/04 06:33:10;;;;;;;4.80;4.22;;;20.10;91.30;;;;;;4654754;30;20062;-86
2021/06/04 06:51:00;;;;;;;6.15;4.47;;;22.40;90.90;;;;;;4630237;30;20446;-87
2021/06/04 06:55:10;;;;;;;6.13;4.22;;;22.40;89.80;;;;;;4629235;30;20078;-87
2021/06/04 08:10:40;;;;;;;4.30;3.75;;;21.90;88.30;;;;;;4751333;29;20059;-89
2021/06/04 08:13:14;;;;;;;4.78;3.63;;;22.40;86.30;;;;;;4713149;30;20057;-79
2021/06/04 08:15:49;;;;;;;3.53;3.22;;;22.20;82.70;;;;;;4713404;30;20057;-84
2021/06/04 08:18:20;;;;;;;5.38;4.25;;;22.40;84.20;;;;;;4716019;30;20495;-82
2021/06/04 08:20:48;;;;;;;;;;;22.50;85.10;;;;;;4713960;30;20065;-79
2021/06/04 08:23:22;;;;;;;4.35;3.95;;;22.80;82.80;;;;;;4714557;30;19927;-80
2021/06/04 08:25:52;;;;;;;4.82;4.43;;;22.80;82.30;;;;;;4713820;30;20057;-81
2021/06/04 08:28:20;;;;;;;5.95;3.63;;;22.90;82.20;;;;;;4714744;30;20068;-80
2021/06/04 08:30:49;;;;;;;4.00;3.60;;;22.90;85.10;;;;;;4713903;30;20062;-80
2021/06/04 08:33:23;;;;;;;3.42;3.13;;;22.80;85.60;;;;;;4716352;30;20774;-82
2021/06/04 08:35:51;;;;;;;4.45;3.70;;;22.60;84.10;;;;;;4719848;30;21776;-81
2021/06/04 08:38:20;;;;;;;4.22;2.75;;;22.50;87.80;;;;;;4734834;30;20052;-82
2021/06/04 08:40:49;;;;;;;3.72;3.42;;;22.50;86.10;;;;;;4733418;30;20061;-81
2021/06/04 08:43:42;;;;;;;4.10;3.72;;;22.50;86.40;;;;;;4734999;30;20522;-81
2021/06/04 08:46:21;;;;;;;12.52;4.07;;;22.60;86.50;;;;;;4731696;30;20057;-82
2021/06/04 08:49:20;;;;;;;4.47;3.70;;;22.50;84.10;;;;;;4733608;30;20072;-80
2021/06/04 08:52:17;;;;;;;3.55;3.20;;;22.50;84.60;;;;;;4732066;30;20056;-83
2021/06/04 08:54:59;;;;;;;3.92;3.63;;;22.60;90.20;;;;;;4733666;30;20415;-80
2021/06/04 08:57:45;;;;;;;4.20;3.47;;;22.70;90.40;;;;;;4734511;30;20407;-81
2021/06/04 09:00:35;;;;;;;3.65;3.25;;;22.80;84.90;;;;;;4717500;30;20053;-81
2021/06/04 09:03:10;;;;;;;;;;;23.10;90.00;;;;;;4715182;30;20104;-82
2021/06/04 09:05:47;;;;;;;3.92;3.63;;;23.10;83.50;;;;;;4716685;30;19934;-81
2021/06/04 09:08:20;;;;;;;3.75;3.45;;;23.30;86.30;;;;;;4716903;30;20409;-79
2021/06/04 09:10:53;;;;;;;5.60;3.70;;;23.30;79.70;;;;;;4730148;30;20045;-80
2021/06/04 09:13:25;;;;;;;3.65;3.22;;;23.20;81.70;;;;;;4760583;30;20052;-79
2021/06/04 09:16:05;;;;;;;4.25;3.55;;;23.30;83.40;;;;;;4751403;30;20052;-80
2021/06/04 09:18:46;;;;;;;5.63;4.07;;;23.50;84.70;;;;;;4751771;30;20048;-81
2021/06/04 09:21:18;;;;;;;3.95;3.65;;;23.70;84.80;;;;;;4740008;30;20055;-81
2021/06/04 09:23:46;;;;;;;11.45;2.95;;;23.80;82.90;;;;;;4753766;30;20132;-80
2021/06/04 09:26:16;;;;;;;3.80;3.40;;;23.90;81.90;;;;;;4737531;30;20052;-79
2021/06/04 09:29:08;;;;;;;3.50;3.20;;;24.00;73.80;;;;;;4769202;30;20419;-83
2021/06/04 09:31:47;;;;;;;12.07;4.35;;;23.90;76.70;;;;;;4769399;30;20498;-75
2021/06/04 09:34:25;;;;;;;3.13;2.88;;;23.80;82.30;;;;;;4769152;30;20043;-75
2021/06/04 09:36:57;;;;;;;5.63;3.30;;;23.90;81.80;;;;;;4769068;30;20047;-75
2021/06/04 09:39:35;;;;;;;5.28;2.90;;;23.80;81.70;;;;;;4769467;30;20490;-75
2021/06/04 09:42:17;;;;;;;3.72;2.50;;;23.80;81.60;;;;;;4768852;30;20087;-74
2021/06/04 09:45:13;;;;;;;3.25;3.05;;;23.90;77.00;;;;;;4768285;30;20056;-76
2021/06/04 09:47:45;;;;;;;5.95;3.30;;;23.90;82.80;;;;;;4761999;30;20521;-77
2021/06/04 09:50:28;;;;;;;4.00;2.63;;;24.00;78.10;;;;;;4768123;30;20067;-75
2021/06/04 09:53:08;;;;;;;2.97;2.63;;;23.90;78.20;;;;;;4768829;30;20048;-81
2021/06/04 09:55:40;;;;;;;5.13;2.78;;;23.70;71.60;;;;;;4738154;30;20063;-79
2021/06/04 09:58:17;;;;;;;5.43;3.08;;;23.70;76.00;;;;;;4767996;30;20048;-79
2021/06/04 10:00:55;;;;;;;2.72;2.53;;;24.00;77.10;;;;;;4753276;30;20380;-81
2021/06/04 10:03:30;;;;;;;2.97;2.75;;;24.10;71.30;;;;;;4769251;30;20067;-75
2021/06/04 10:06:07;;;;;;;2.75;2.55;;;24.20;72.80;;;;;;4768197;30;20059;-78
2021/06/04 10:08:46;;;;;;;2.75;2.50;;;24.40;72.80;;;;;;4752357;30;20067;-76
2021/06/04 10:11:40;;;;;;;2.70;2.50;;;24.60;70.90;;;;;;4767859;30;20067;-76
2021/06/04 10:14:30;;;;;;;2.95;2.65;;;24.80;79.40;;;;;;4748554;30;20166;-77
2021/06/04 10:17:14;;;;;;;3.33;3.00;;;24.90;73.00;;;;;;4750592;30;20048;-75
2021/06/04 10:19:44;;;;;;;3.78;2.70;;;24.80;78.60;;;;;;4750990;30;20475;-76
2021/06/04 10:22:31;;;;;;;;;;;24.70;70.40;;;;;;4751233;30;20057;-76
2021/06/04 10:25:01;;;;;;;3.25;3.05;;;24.50;76.40;;;;;;4749403;30;19933;-77
2021/06/04 10:27:31;;;;;;;;;;;24.60;79.20;;;;;;4750928;30;20072;-76
2021/06/04 10:30:17;;;;;;;10.10;4.13;;;24.60;73.90;;;;;;4758760;30;20404;-76
2021/06/04 10:32:54;;;;;;;3.22;3.03;;;24.60;75.80;;;;;;4767868;30;20422;-75
2021/06/04 10:35:54;;;;;;;4.20;2.95;;;24.60;76.80;;;;;;4767931;30;20075;-75
2021/06/04 10:38:54;;;;;;;10.20;5.85;;;24.90;67.50;;;;;;4750036;30;20559;-75
2021/06/04 10:41:44;;;;;;;3.13;2.92;;;24.80;73.40;;;;;;4738424;30;20052;-75
2021/06/04 10:44:54;;;;;;;8.27;4.38;;;24.70;69.00;;;;;;4751065;30;20067;-75
2021/06/04 10:47:31;;;;;;;2.90;2.72;;;24.50;69.80;;;;;;4740070;30;20071;-75
2021/06/04 10:50:24;;;;;;;4.32;3.38;;;24.60;72.10;;;;;;4746324;30;20048;-76
2021/06/04 10:53:07;;;;;;;2.30;2.20;;;24.60;74.40;;;;;;4728652;30;20052;-76
2021/06/04 10:55:59;;;;;;;3.20;2.90;;;24.50;70.30;;;;;;4726749;30;20059;-76
2021/06/04 10:58:59;;;;;;;2.75;2.55;;;24.60;77.40;;;;;;4839544;24;20095;-83
2021/06/04 11:01:35;;;;;;;4.18;3.80;;;24.90;83.00;;;;;;4749864;30;20079;-82
2021/06/04 11:04:24;;;;;;;30.80;6.47;;;25.10;77.30;;;;;;4750550;30;20060;-81
2021/06/04 11:07:13;;;;;;;7.28;3.03;;;25.00;71.60;;;;;;4734066;30;20063;-80
2021/06/04 11:10:05;;;;;;;3.67;3.33;;;25.00;75.30;;;;;;4753020;30;20498;-82
2021/06/04 11:12:47;;;;;;;3.08;2.78;;;24.90;78.20;;;;;;4752074;30;20390;-82
2021/06/04 11:15:32;;;;;;;3.42;3.22;;;25.20;73.30;;;;;;4752056;30;20058;-83
2021/06/04 11:18:09;;;;;;;4.72;3.38;;;25.10;74.20;;;;;;4767596;30;20094;-82
2021/06/04 11:20:46;;;;;;;4.10;3.58;;;25.10;79.00;;;;;;4763824;30;20066;-84
2021/06/04 11:23:42;;;;;;;3.53;3.22;;;25.20;74.90;;;;;;4768401;30;20750;-84
2021/06/04 11:26:36;;;;;;;2.65;2.45;;;25.40;69.30;;;;;;4768901;30;20074;-84
2021/06/04 11:29:11;;;;;;;3.50;2.53;;;25.40;76.10;;;;;;4782548;30;20047;-83
2021/06/04 11:31:53;;;;;;;3.33;3.03;;;25.60;77.50;;;;;;4756202;30;20052;-84
2021/06/04 11:34:50;;;;;;;3.35;2.75;;;25.60;74.90;;;;;;4753824;30;20058;-83
2021/06/04 11:37:42;;;;;;;3.17;2.90;;;25.40;68.10;;;;;;4755173;30;20054;-83
2021/06/04 11:40:45;;;;;;;3.03;2.80;;;25.40;71.00;;;;;;4737072;30;20067;-84
2021/06/04 11:43:30;;;;;;;3.47;2.80;;;25.30;73.30;;;;;;4746966;30;20503;-83
2021/06/04 11:46:27;;;;;;;3.53;3.22;;;25.30;72.50;;;;;;4749104;30;20084;-84
2021/06/04 11:49:08;;;;;;;3.03;2.83;;;25.50;69.30;;;;;;4742634;30;20054;-83
2021/06/04 11:51:50;;;;;;;4.15;3.58;;;25.50;73.70;;;;;;4750488;30;20055;-83
2021/06/04 11:54:35;;;;;;;2.80;2.53;;;25.50;69.20;;;;;;4766576;30;20059;-84
2021/06/04 11:57:40;;;;;;;2.88;2.67;;;25.40;70.10;;;;;;4752077;30;20051;-83
2021/06/04 12:00:26;;;;;;;3.00;2.70;;;25.60;65.90;;;;;;4766749;30;20079;-84
2021/06/04 12:03:09;;;;;;;2.78;2.58;;;25.80;77.00;;;;;;4736677;30;20052;-84
2021/06/04 12:05:51;;;;;;;2.92;2.72;;;25.80;76.80;;;;;;4750279;30;20064;-83
2021/06/04 12:08:24;;;;;;;3.25;3.05;;;25.80;68.20;;;;;;4764042;30;20446;-83
2021/06/04 12:10:52;;;;;;;4.50;3.83;;;25.70;73.60;;;;;;4763896;30;20048;-83
2021/06/04 12:13:34;;;;;;;4.90;3.13;;;25.60;69.20;;;;;;4769221;30;20058;-83
2021/06/04 12:16:21;;;;;;;3.42;3.13;;;25.60;73.10;;;;;;4770534;30;20071;-82
2021/06/04 12:19:02;;;;;;;3.10;2.55;;;25.70;69.70;;;;;;4770264;30;20514;-82
2021/06/04 12:21:40;;;;;;;2.65;2.55;;;25.60;69.60;;;;;;4751700;30;20067;-83
2021/06/04 12:24:33;;;;;;;5.97;2.83;;;25.50;68.90;;;;;;4766099;30;20087;-83
2021/06/04 12:27:10;;;;;;;3.05;2.85;;;25.50;70.20;;;;;;4762682;30;20047;-81
2021/06/04 12:29:45;;;;;;;2.85;2.65;;;25.70;63.30;;;;;;4751681;30;20672;-81
2021/06/04 12:32:48;;;;;;;2.53;2.33;;;25.70;70.20;;;;;;4722393;30;20056;-83
2021/06/04 12:40:13;;;;;;;2.85;2.65;;;25.70;65.10;;;;;;4908277;24;20034;31
2021/06/04 12:43:33;;;;;;;3.03;2.83;;;25.80;71.00;;;;;;4726363;24;20064;-90
2021/06/04 12:46:50;;;;;;;2.88;2.67;;;25.70;64.40;;;;;;4750607;30;20056;-89
2021/06/04 12:50:45;;;;;;;2.72;2.53;;;25.50;64.70;;;;;;4808752;24;20048;-89
2021/06/04 12:58:30;;;;;;;3.33;3.03;;;25.40;73.70;;;;;;4779226;24;20072;-91
2021/06/04 13:05:05;;;;;;;3.08;2.78;;;25.60;70.40;;;;;;4859086;24;20498;-90
2021/06/04 13:11:19;;;;;;;3.05;2.85;;;25.70;65.60;;;;;;4651073;30;20497;-87
2021/06/04 13:28:56;;;;;;;5.15;3.05;;;26.30;66.50;;;;;;5107864;24;20051;-89
2021/06/04 13:33:25;;;;;;;3.65;3.08;;;26.40;65.60;;;;;;4755825;30;20078;-86
2021/06/04 13:40:41;;;;;;;3.13;2.92;;;26.10;66.40;;;;;;4976896;24;20068;-93
2021/06/04 13:44:19;;;;;;;7.53;3.08;;;26.20;68.70;;;;;;4692321;30;20056;-91
2021/06/04 13:47:43;;;;;;;4.53;4.05;;;26.00;69.30;;;;;;4678347;30;20432;-89
2021/06/04 13:54:25;;;;;;;4.13;3.10;;;25.90;67.70;;;;;;4802485;24;20051;-91
2021/06/04 13:57:28;;;;;;;6.35;2.63;;;25.90;66.90;;;;;;4805272;24;20055;-89
2021/06/04 14:00:31;;;;;;;3.15;2.85;;;25.90;67.40;;;;;;4735803;30;20060;-92
2021/06/04 14:06:55;;;;;;;3.47;3.17;;;26.00;68.00;;;;;;4754735;30;20056;-93
2021/06/04 14:18:58;;;;;;;5.57;3.28;;;26.20;63.60;;;;;;4669592;30;20061;-90
2021/06/04 14:23:03;;;;;;;2.97;2.78;;;26.50;63.40;;;;;;4715994;30;20056;-84
2021/06/04 14:26:35;;;;;;;4.70;3.05;;;26.40;66.40;;;;;;4642382;30;20062;-87
2021/06/04 14:32:40;;;;;;;2.97;2.78;;;25.90;60.70;;;;;;4785400;24;20067;-86
2021/06/04 14:35:39;;;;;;;2.83;2.38;;;25.50;63.10;;;;;;4718661;30;20075;-86
2021/06/04 14:41:35;;;;;;;3.08;2.78;;;25.40;60.10;;;;;;4722535;30;20060;-87
2021/06/04 14:52:26;;;;;;;4.70;2.15;;;25.90;61.00;;;;;;4862489;24;20296;-85
2021/06/04 14:55:46;;;;;;;3.22;2.92;;;26.20;60.80;;;;;;4742939;30;20055;-88
2021/06/04 15:03:11;;;;;;;12.57;2.67;;;26.00;60.70;;;;;;5785170;24;20031;31
2021/06/04 15:10:57;;;;;;;;;;;;;;;;;;;;;
2021/06/04 15:13:52;;;;;;;3.65;3.20;;;25.20;63.40;;;;;;4720186;30;20056;-87
2021/06/04 15:17:44;;;;;;;3.22;3.03;;;24.90;61.60;;;;;;4835293;24;20064;-91
2021/06/04 15:29:40;;;;;;;3.47;3.17;;;24.30;66.50;;;;;;5050799;24;20515;-90
2021/06/04 15:32:12;;;;;;;;;;;24.00;66.30;;;;;;4706500;30;20071;-82
2021/06/04 15:34:40;;;;;;;3.25;2.67;;;23.60;73.70;;;;;;4734039;30;19941;-83
2021/06/04 15:37:08;;;;;;;3.88;3.58;;;23.10;77.20;;;;;;4749714;30;20073;-81
2021/06/04 15:39:36;;;;;;;4.55;3.20;;;22.70;80.50;;;;;;4760069;30;20061;-85
2021/06/04 15:42:06;;;;;;;4.10;2.92;;;22.40;81.40;;;;;;4733189;30;20059;-82
2021/06/04 15:44:35;;;;;;;2.42;2.08;;;22.30;84.00;;;;;;4738126;30;20061;-83
2021/06/04 15:47:04;;;;;;;3.75;2.33;;;22.00;86.00;;;;;;4729699;30;20063;-81
2021/06/04 15:49:33;;;;;;;3.70;1.73;;;21.40;85.60;;;;;;4755467;30;20414;-82
2021/06/04 15:52:02;;;;;;;3.13;2.72;;;21.00;87.20;;;;;;4754885;30;20060;-78
2021/06/04 15:54:30;;;;;;;2.58;2.30;;;20.80;88.00;;;;;;4738985;30;20065;-82
2021/06/04 15:56:58;;;;;;;3.35;1.60;;;20.70;88.30;;;;;;4755290;30;20040;-79
2021/06/04 15:59:26;;;;;;;3.65;2.05;;;20.60;88.40;;;;;;4755926;30;20067;-81
2021/06/04 16:01:54;;;;;;;6.72;1.60;;;20.50;89.70;;;;;;4755173;30;20051;-80
2021/06/04 16:04:22;;;;;;;12.88;3.17;;;20.50;89.70;;;;;;4755806;30;20507;-83
2021/06/04 16:07:08;;;;;;;2.25;1.70;;;20.50;90.30;;;;;;4752990;30;20064;-81
2021/06/04 16:09:37;;;;;;;5.07;1.88;;;20.50;90.50;;;;;;4755034;30;20103;-83
2021/06/04 16:12:06;;;;;;;1.90;1.67;;;20.40;91.00;;;;;;4755302;30;20064;-81
2021/06/04 16:14:35;;;;;;;4.25;1.85;;;20.20;92.20;;;;;;4755335;30;20052;-80
2021/06/04 16:17:05;;;;;;;5.00;2.08;;;19.90;92.10;;;;;;4755423;30;20056;-82
2021/06/04 16:19:34;;;;;;;21.38;2.20;;;19.90;92.30;;;;;;4739677;30;20052;-82
2021/06/04 16:22:04;;;;;;;2.13;1.60;;;19.90;92.00;;;;;;4754818;30;20063;-83
2021/06/04 16:24:32;;;;;;;3.13;1.70;;;19.90;91.80;;;;;;4755247;30;20522;-81
2021/06/04 16:27:00;;;;;;;2.08;1.90;;;19.90;92.60;;;;;;4755682;30;20067;-83
2021/06/04 16:29:28;;;;;;;2.75;1.88;;;19.80;92.90;;;;;;4754919;30;20076;-82
2021/06/04 16:31:59;;;;;;;1.55;1.30;;;19.70;93.00;;;;;;4743553;30;20492;-84
2021/06/04 16:34:29;;;;;;;5.50;2.42;;;19.60;93.40;;;;;;4737310;30;20047;-84
2021/06/04 16:37:02;;;;;;;3.97;1.75;;;19.50;93.60;;;;;;4744614;30;20159;-81
2021/06/04 16:39:29;;;;;;;8.00;2.92;;;19.50;94.30;;;;;;4732555;30;20153;-80
2021/06/04 16:41:57;;;;;;;8.98;3.58;;;19.40;93.60;;;;;;4754503;30;20048;-82
2021/06/04 16:44:25;;;;;;;1.95;1.70;;;19.40;93.80;;;;;;4755502;30;20064;-83
2021/06/04 16:47:22;;;;;;;2.55;2.08;;;19.30;94.40;;;;;;4755178;30;20060;-85
2021/06/04 16:50:22;;;;;;;1.65;1.55;;;19.30;94.50;;;;;;4699685;30;20048;-81
2021/06/04 16:52:54;;;;;;;5.05;2.75;;;19.20;94.00;;;;;;4754943;30;20060;-83
2021/06/04 16:55:34;;;;;;;2.55;1.90;;;19.40;93.70;;;;;;4708009;30;20048;-85
2021/06/04 16:59:04;;;;;;;1.67;1.40;;;19.30;94.70;;;;;;4715020;30;20048;-84
2021/06/04 17:02:16;;;;;;;7.03;1.65;;;19.20;94.30;;;;;;4708928;30;20049;-85
2021/06/04 17:06:20;;;;;;;;;;;;;;;;;;;;;
2021/06/04 17:09:17;;;;;;;1.85;1.70;;;19.10;95.00;;;;;;4716355;30;20057;-82
2021/06/04 17:12:40;;;;;;;4.30;1.58;;;19.00;94.80;;;;;;4714640;30;20064;-83
2021/06/04 17:20:22;;;;;;;1.90;1.80;;;18.80;96.50;;;;;;4716652;30;20059;-85
2021/06/04 17:22:51;;;;;;;12.07;3.25;;;18.70;97.20;;;;;;4720699;30;20067;-84
2021/06/04 17:26:09;;;;;;;4.43;3.00;;;18.60;97.30;;;;;;4714594;30;20057;-84
2021/06/04 17:32:37;;;;;;;2.40;2.20;;;18.70;97.00;;;;;;4668982;30;20065;-85
2021/06/04 17:36:07;;;;;;;;;;;18.70;97.40;;;;;;4643999;30;20057;-86
2021/06/04 17:38:37;;;;;;;2.50;2.30;;;18.60;97.20;;;;;;4707632;30;19936;-85
2021/06/04 17:42:25;;;;;;;2.53;2.33;;;18.60;97.60;;;;;;4714191;30;20065;-84
2021/06/04 17:47:12;;;;;;;3.65;2.40;;;18.50;98.10;;;;;;4690874;30;20095;-85
2021/06/04 17:50:13;;;;;;;3.72;2.33;;;18.60;98.80;;;;;;4697227;30;20067;-87
2021/06/04 17:53:43;;;;;;;;;;;;;;;;;;;;;
2021/06/04 18:10:40;;;;;;;1.98;1.88;;;18.30;99.20;;;;;;4612180;30;20054;-84
2021/06/04 18:13:17;;;;;;;2.15;2.05;;;18.30;99.80;;;;;;4675843;30;20058;-83
2021/06/04 18:15:48;;;;;;;1.92;1.73;;;18.30;99.90;;;;;;4664503;30;20062;-83
2021/06/04 18:18:29;;;;;;;4.60;3.42;;;18.30;99.80;;;;;;4656003;30;20062;-84
2021/06/04 18:21:19;;;;;;;2.63;2.42;;;18.20;99.90;;;;;;4662244;30;20073;-85
2021/06/04 18:24:16;;;;;;;6.00;4.22;;;18.00;99.90;;;;;;4676241;30;20072;-85
2021/06/04 18:27:34;;;;;;;3.55;3.25;;;17.70;99.90;;;;;;4665642;30;20065;-86
2021/06/04 18:30:07;;;;;;;3.50;3.30;;;17.60;99.90;;;;;;4695785;30;20114;-86
2021/06/04 18:32:36;;;;;;;3.97;3.13;;;17.60;99.90;;;;;;4714887;30;20325;-87
2021/06/04 18:36:09;;;;;;;2.78;2.58;;;17.70;99.90;;;;;;4687398;30;20061;-84
2021/06/04 18:51:55;;;;;;;9.38;3.45;;;17.70;99.90;;;;;;4652299;30;20050;-83
2021/06/04 19:29:54;;;;;;;5.00;3.10;;;17.60;99.90;;;;;;5164778;24;20060;-83
2021/06/04 20:36:23;;;;;;;5.20;4.47;;;17.30;99.90;;;;;;4814886;24;20056;-80
2021/06/04 23:04:27;;;;;;;4.15;3.85;;;15.30;99.90;;;;;;4661560;30;20053;-83
2021/06/04 23:18:32;;;;;;;;;;;;;;;;;;;;;
2021/06/04 23:28:31;;;;;;;4.00;3.70;;;15.30;99.90;;;;;;4545147;31;20056;-85
2021/06/04 23:33:12;;;;;;;5.35;4.05;;;15.10;99.90;;;;;;4567411;31;20065;-84
2021/06/04 23:37:38;;;;;;;;;;;;;;;;;;;;;
2021/06/04 23:43:01;;;;;;;6.70;4.00;;;14.90;99.90;;;;;;4574284;31;20073;-85
2021/06/04 23:47:22;;;;;;;3.72;3.42;;;14.70;99.90;;;;;;4565064;31;20067;-84
